createdAt,value
2018-07-23T00:01:58.622Z,10.65
2018-07-23T00:04:27.982Z,10.82
2018-07-23T00:06:56.260Z,9.05
2018-07-23T00:09:24.457Z,10.20
2018-07-23T00:11:52.644Z,10.15
2018-07-23T00:14:20.834Z,10.13
2018-07-23T00:16:49.061Z,10.00
2018-07-23T00:19:17.284Z,10.23
2018-07-23T00:21:45.478Z,14.83
2018-07-23T00:24:13.674Z,12.78
2018-07-23T00:26:41.910Z,12.37
2018-07-23T00:29:10.140Z,12.45
2018-07-23T00:31:38.368Z,12.30
2018-07-23T00:34:06.611Z,13.60
2018-07-23T00:36:34.879Z,14.30
2018-07-23T00:39:03.075Z,15.10
2018-07-23T00:41:31.264Z,15.38
2018-07-23T00:43:59.483Z,14.33
2018-07-23T00:46:27.708Z,14.15
2018-07-23T00:48:55.967Z,15.70
2018-07-23T00:51:24.168Z,13.72
2018-07-23T00:53:52.392Z,13.10
2018-07-23T00:56:20.589Z,14.83
2018-07-23T00:58:48.783Z,12.70
2018-07-23T01:01:22.576Z,15.58
2018-07-23T01:03:50.792Z,13.38
2018-07-23T01:06:19.012Z,16.10
2018-07-23T01:08:47.223Z,18.67
2018-07-23T01:11:15.452Z,17.45
2018-07-23T01:13:43.624Z,19.82
2018-07-23T01:16:11.831Z,21.65
2018-07-23T01:18:39.992Z,16.57
2018-07-23T01:21:08.237Z,19.60
2018-07-23T01:23:36.419Z,24.50
2018-07-23T01:26:04.644Z,18.62
2018-07-23T01:28:32.809Z,23.00
2018-07-23T01:31:01.000Z,20.50
2018-07-23T01:33:29.207Z,25.82
2018-07-23T01:35:57.416Z,22.85
2018-07-23T01:38:25.587Z,25.80
2018-07-23T01:40:53.784Z,25.08
2018-07-23T01:43:21.981Z,25.68
2018-07-23T01:45:50.186Z,23.22
2018-07-23T01:48:18.385Z,20.72
2018-07-23T01:50:46.631Z,26.10
2018-07-23T01:53:14.837Z,24.65
2018-07-23T01:55:43.027Z,26.25
2018-07-23T01:58:11.288Z,24.60
2018-07-23T02:00:39.559Z,26.30
2018-07-23T02:03:07.828Z,28.17
2018-07-23T02:05:36.056Z,24.25
2018-07-23T02:08:04.206Z,25.43
2018-07-23T02:10:32.457Z,21.40
2018-07-23T02:13:00.742Z,24.23
2018-07-23T02:15:28.916Z,21.93
2018-07-23T02:17:57.127Z,23.38
2018-07-23T02:20:25.371Z,25.82
2018-07-23T02:22:53.551Z,25.65
2018-07-23T02:25:21.755Z,25.77
2018-07-23T02:27:49.976Z,25.30
2018-07-23T02:30:18.156Z,27.80
2018-07-23T02:32:46.407Z,25.65
2018-07-23T02:35:14.624Z,26.00
2018-07-23T02:37:42.880Z,22.95
2018-07-23T02:40:11.072Z,26.73
2018-07-23T02:42:39.310Z,32.03
2018-07-23T02:45:07.521Z,27.07
2018-07-23T02:47:35.702Z,27.00
2018-07-23T02:50:03.918Z,27.22
2018-07-23T02:52:32.074Z,28.55
2018-07-23T02:55:00.239Z,27.15
2018-07-23T02:57:28.445Z,25.27
2018-07-23T02:59:56.624Z,26.25
2018-07-23T03:02:24.829Z,26.80
2018-07-23T03:04:53.009Z,27.93
2018-07-23T03:07:21.193Z,26.25
2018-07-23T03:09:49.392Z,26.85
2018-07-23T03:12:17.595Z,26.37
2018-07-23T03:14:45.872Z,24.98
2018-07-23T03:17:14.060Z,35.35
2018-07-23T03:19:42.240Z,29.70
2018-07-23T03:22:10.438Z,28.67
2018-07-23T03:24:38.589Z,29.42
2018-07-23T03:27:06.782Z,28.15
2018-07-23T03:29:34.953Z,28.47
2018-07-23T03:32:03.179Z,29.67
2018-07-23T03:34:31.347Z,28.85
2018-07-23T03:36:59.627Z,26.48
2018-07-23T03:39:27.804Z,26.05
2018-07-23T03:41:56.045Z,25.62
2018-07-23T03:44:24.235Z,32.55
2018-07-23T03:46:52.455Z,28.30
2018-07-23T03:49:20.650Z,30.52
2018-07-23T03:51:48.847Z,29.95
2018-07-23T03:54:17.222Z,33.48
2018-07-23T03:56:45.398Z,29.63
2018-07-23T03:59:13.840Z,29.63
2018-07-23T04:01:42.071Z,31.17
2018-07-23T04:04:10.265Z,32.03
2018-07-23T04:06:38.463Z,32.85
2018-07-23T04:09:08.090Z,34.23
2018-07-23T04:11:36.317Z,32.98
2018-07-23T04:14:04.524Z,29.00
2018-07-23T04:16:32.764Z,28.32
2018-07-23T04:19:00.954Z,27.40
2018-07-23T04:21:29.152Z,29.65
2018-07-23T04:23:57.383Z,32.25
2018-07-23T04:26:25.652Z,28.60
2018-07-23T04:28:54.047Z,26.33
2018-07-23T04:31:22.300Z,25.65
2018-07-23T04:33:50.493Z,26.48
2018-07-23T04:36:18.673Z,26.02
2018-07-23T04:38:46.904Z,25.88
2018-07-23T04:41:15.100Z,27.90
2018-07-23T04:43:43.350Z,25.65
2018-07-23T04:46:11.567Z,26.75
2018-07-23T04:48:39.880Z,27.80
2018-07-23T04:51:08.100Z,26.00
2018-07-23T04:53:36.368Z,26.93
2018-07-23T04:56:04.742Z,26.17
2018-07-23T04:58:33.041Z,24.80
2018-07-23T05:01:01.248Z,23.07
2018-07-23T05:03:29.469Z,23.57
2018-07-23T05:05:57.651Z,20.90
2018-07-23T05:08:25.885Z,21.40
2018-07-23T05:10:54.046Z,22.58
2018-07-23T05:13:22.265Z,22.15
2018-07-23T05:15:50.470Z,21.73
2018-07-23T05:18:18.679Z,19.87
2018-07-23T05:20:46.838Z,20.45
2018-07-23T05:23:15.012Z,19.85
2018-07-23T05:25:43.240Z,19.73
2018-07-23T05:28:11.420Z,16.82
2018-07-23T05:30:39.611Z,17.30
2018-07-23T05:33:07.822Z,16.73
2018-07-23T05:35:36.097Z,13.78
2018-07-23T05:38:04.367Z,12.90
2018-07-23T05:40:32.609Z,14.03
2018-07-23T05:43:00.827Z,12.93
2018-07-23T05:45:29.062Z,11.18
2018-07-23T05:47:57.263Z,9.90
2018-07-23T05:50:25.551Z,10.58
2018-07-23T05:52:53.833Z,8.78
2018-07-23T05:55:21.988Z,8.75
2018-07-23T05:57:50.329Z,8.43
2018-07-23T06:00:18.530Z,9.33
2018-07-23T06:02:47.208Z,7.40
2018-07-23T06:05:15.693Z,8.57
2018-07-23T06:07:44.130Z,7.60
2018-07-23T06:10:19.350Z,9.53
2018-07-23T06:12:50.597Z,6.80
2018-07-23T06:15:29.460Z,9.10
2018-07-23T06:17:59.810Z,7.17
2018-07-23T06:23:19.359Z,7.90
2018-07-23T06:25:53.163Z,10.77
2018-07-23T06:28:21.904Z,8.40
2018-07-23T06:30:55.154Z,6.57
2018-07-23T06:33:25.011Z,7.47
2018-07-23T06:35:54.029Z,6.10
2018-07-23T06:38:22.184Z,7.70
2018-07-23T06:40:50.345Z,6.57
2018-07-23T06:43:18.554Z,6.23
2018-07-23T06:45:46.716Z,8.60
2018-07-23T06:48:14.880Z,6.83
2018-07-23T06:50:43.033Z,7.57
2018-07-23T06:53:11.259Z,7.33
2018-07-23T06:55:39.573Z,6.60
2018-07-23T06:58:07.835Z,6.70
2018-07-23T07:00:36.042Z,5.80
2018-07-23T07:03:05.579Z,6.77
2018-07-23T07:05:33.764Z,6.20
2018-07-23T07:08:01.916Z,13.53
2018-07-23T07:10:30.220Z,6.27
2018-07-23T07:12:58.387Z,7.03
2018-07-23T07:15:26.539Z,5.93
2018-07-23T07:17:54.701Z,5.40
2018-07-23T07:20:22.861Z,6.30
2018-07-23T07:22:51.289Z,6.00
2018-07-23T07:25:19.477Z,6.60
2018-07-23T07:27:47.696Z,6.50
2018-07-23T07:30:15.882Z,7.07
2018-07-23T07:32:44.048Z,6.17
2018-07-23T07:35:12.209Z,6.50
2018-07-23T07:37:40.351Z,4.60
2018-07-23T07:40:09.591Z,4.80
2018-07-23T07:42:37.790Z,5.73
2018-07-23T07:45:06.463Z,5.60
2018-07-23T07:47:34.711Z,6.93
2018-07-23T07:50:02.912Z,5.20
2018-07-23T07:52:31.127Z,5.00
2018-07-23T07:54:59.278Z,4.57
2018-07-23T07:57:27.484Z,5.20
2018-07-23T07:59:55.676Z,3.83
2018-07-23T08:02:23.840Z,3.67
2018-07-23T08:04:52.069Z,4.27
2018-07-23T08:07:20.219Z,3.80
2018-07-23T08:09:48.389Z,4.10
2018-07-23T08:12:16.544Z,3.90
2018-07-23T08:14:44.724Z,5.50
2018-07-23T08:17:12.924Z,4.97
2018-07-23T08:19:41.123Z,6.80
2018-07-23T08:22:09.277Z,4.93
2018-07-23T08:24:37.447Z,5.47
2018-07-23T08:27:06.537Z,5.63
2018-07-23T08:29:34.865Z,5.30
2018-07-23T08:32:03.238Z,4.57
2018-07-23T08:34:31.443Z,5.37
2018-07-23T08:36:59.644Z,10.10
2018-07-23T08:39:27.785Z,6.53
2018-07-23T08:41:55.964Z,4.83
2018-07-23T08:44:24.192Z,4.93
2018-07-23T08:46:52.480Z,4.77
2018-07-23T08:49:20.679Z,5.53
2018-07-23T08:51:48.827Z,5.47
2018-07-23T08:54:16.985Z,7.00
2018-07-23T08:56:45.154Z,5.93
2018-07-23T08:59:13.295Z,7.00
2018-07-23T09:01:41.464Z,5.80
2018-07-23T09:04:09.673Z,6.13
2018-07-23T09:06:37.852Z,6.47
2018-07-23T09:09:07.496Z,4.80
2018-07-23T09:11:35.734Z,5.17
2018-07-23T09:14:03.892Z,6.63
2018-07-23T09:16:32.053Z,6.90
2018-07-23T09:19:00.216Z,5.53
2018-07-23T09:21:28.382Z,5.93
2018-07-23T09:23:56.570Z,6.13
2018-07-23T09:26:24.726Z,6.10
2018-07-23T09:28:52.912Z,5.03
2018-07-23T09:31:21.061Z,6.60
2018-07-23T09:33:49.202Z,5.30
2018-07-23T09:36:17.368Z,5.83
2018-07-23T09:38:45.497Z,5.63
2018-07-23T09:41:13.666Z,4.80
2018-07-23T09:43:41.808Z,6.27
2018-07-23T09:46:10.013Z,6.20
2018-07-23T09:48:38.155Z,5.83
2018-07-23T09:51:06.383Z,6.60
2018-07-23T09:53:34.549Z,5.97
2018-07-23T09:56:02.716Z,7.73
2018-07-23T09:58:30.858Z,6.33
2018-07-23T10:01:04.353Z,5.47
2018-07-23T10:03:32.546Z,4.20
2018-07-23T10:06:00.705Z,6.17
2018-07-23T10:08:28.868Z,5.00
2018-07-23T10:10:57.349Z,6.00
2018-07-23T10:13:25.428Z,5.73
2018-07-23T10:15:53.588Z,5.20
2018-07-23T10:18:21.764Z,5.97
2018-07-23T10:20:49.962Z,6.27
2018-07-23T10:23:18.108Z,6.13
2018-07-23T10:25:46.319Z,6.93
2018-07-23T10:28:14.481Z,5.50
2018-07-23T10:30:42.627Z,7.87
2018-07-23T10:33:10.836Z,6.23
2018-07-23T10:35:38.988Z,6.47
2018-07-23T10:38:07.156Z,5.33
2018-07-23T10:40:35.320Z,6.20
2018-07-23T10:43:03.505Z,5.67
2018-07-23T10:45:31.728Z,5.50
2018-07-23T10:47:59.926Z,5.23
2018-07-23T10:50:28.078Z,4.93
2018-07-23T10:52:56.239Z,4.90
2018-07-23T10:55:24.403Z,6.60
2018-07-23T10:57:52.757Z,4.70
2018-07-23T11:00:20.929Z,4.80
2018-07-23T11:02:49.079Z,5.80
2018-07-23T11:05:17.231Z,6.77
2018-07-23T11:07:45.485Z,5.83
2018-07-23T11:10:13.748Z,5.87
2018-07-23T11:12:41.998Z,5.87
2018-07-23T11:15:10.255Z,6.40
2018-07-23T11:17:38.559Z,4.87
2018-07-23T11:20:08.958Z,4.73
2018-07-23T11:22:37.185Z,5.23
2018-07-23T11:25:38.414Z,5.57
2018-07-23T11:27:33.702Z,5.27
2018-07-23T11:30:01.898Z,5.33
2018-07-23T11:32:30.043Z,5.33
2018-07-23T11:34:58.279Z,5.17
2018-07-23T11:37:26.484Z,4.10
2018-07-23T11:39:54.632Z,7.00
2018-07-23T11:42:22.831Z,3.90
2018-07-23T11:44:51.052Z,4.67
2018-07-23T11:47:19.255Z,6.00
2018-07-23T11:49:47.456Z,6.53
2018-07-23T11:52:15.586Z,5.13
2018-07-23T11:54:43.744Z,5.40
2018-07-23T11:57:12.053Z,5.23
2018-07-23T11:59:40.195Z,5.37
2018-07-23T12:02:08.668Z,4.63
2018-07-23T12:04:37.114Z,5.30
2018-07-23T12:07:05.895Z,4.27
2018-07-23T12:09:34.097Z,4.30
2018-07-23T12:12:02.294Z,5.40
2018-07-23T12:14:30.474Z,4.93
2018-07-23T12:16:58.626Z,3.90
2018-07-23T12:19:26.773Z,3.97
2018-07-23T12:21:54.933Z,5.33
2018-07-23T12:24:23.238Z,5.57
2018-07-23T12:26:51.383Z,5.50
2018-07-23T12:29:19.587Z,5.27
2018-07-23T12:31:48.305Z,5.07
2018-07-23T12:34:16.459Z,5.10
2018-07-23T12:36:44.954Z,4.87
2018-07-23T12:39:13.370Z,5.03
2018-07-23T12:41:41.992Z,4.07
2018-07-23T12:44:10.393Z,4.90
2018-07-23T12:46:38.768Z,5.10
2018-07-23T12:49:07.072Z,5.33
2018-07-23T12:51:35.705Z,5.43
2018-07-23T12:54:04.068Z,5.37
2018-07-23T12:56:32.244Z,5.30
2018-07-23T12:59:04.665Z,4.40
2018-07-23T13:01:33.237Z,4.20
2018-07-23T13:04:01.412Z,5.37
2018-07-23T13:06:29.577Z,5.60
2018-07-23T13:08:57.752Z,5.10
2018-07-23T13:11:25.929Z,5.23
2018-07-23T13:13:54.211Z,5.10
2018-07-23T13:16:22.612Z,5.87
2018-07-23T13:18:50.822Z,4.93
2018-07-23T13:21:18.955Z,5.27
2018-07-23T13:23:47.106Z,4.87
2018-07-23T13:26:15.272Z,4.87
2018-07-23T13:28:43.458Z,5.20
2018-07-23T13:31:11.628Z,5.47
2018-07-23T13:33:39.781Z,4.50
2018-07-23T13:36:07.971Z,5.10
2018-07-23T13:38:36.468Z,5.00
2018-07-23T13:41:04.916Z,5.57
2018-07-23T13:43:33.093Z,4.93
2018-07-23T13:46:01.641Z,8.27
2018-07-23T13:48:29.834Z,5.40
2018-07-23T13:50:58.409Z,4.63
2018-07-23T13:53:26.558Z,4.70
2018-07-23T13:55:54.864Z,4.53
2018-07-23T13:58:23.053Z,7.50
2018-07-23T14:00:51.240Z,5.00
2018-07-23T14:03:19.544Z,5.00
2018-07-23T14:05:47.747Z,4.37
2018-07-23T14:08:16.145Z,4.60
2018-07-23T14:10:44.546Z,4.07
2018-07-23T14:13:16.162Z,5.17
2018-07-23T14:15:44.508Z,4.20
2018-07-23T14:18:12.680Z,4.80
2018-07-23T14:20:41.087Z,4.93
2018-07-23T14:23:09.271Z,6.03
2018-07-23T14:25:37.467Z,5.90
2018-07-23T14:28:05.798Z,5.50
2018-07-23T14:30:34.049Z,4.50
2018-07-23T14:33:02.337Z,4.97
2018-07-23T14:35:30.493Z,7.63
2018-07-23T14:37:58.736Z,4.93
2018-07-23T14:40:27.586Z,5.30
2018-07-23T14:42:56.187Z,4.97
2018-07-23T14:45:24.384Z,5.17
2018-07-23T14:47:52.689Z,5.47
2018-07-23T14:50:22.357Z,6.50
2018-07-23T14:52:50.729Z,5.27
2018-07-23T14:55:19.025Z,5.20
2018-07-23T14:57:47.437Z,5.60
2018-07-23T15:00:15.919Z,4.97
2018-07-23T15:02:47.748Z,5.70
2018-07-23T15:05:15.958Z,5.57
2018-07-23T15:10:35.200Z,5.00
2018-07-23T15:13:03.433Z,4.80
2018-07-23T15:15:31.704Z,5.30
2018-07-23T15:18:01.471Z,5.30
2018-07-23T15:20:29.784Z,5.00
2018-07-23T15:22:58.016Z,5.50
2018-07-23T15:25:26.232Z,6.20
2018-07-23T15:27:54.618Z,5.63
2018-07-23T15:30:22.835Z,6.03
2018-07-23T15:32:51.080Z,5.23
2018-07-23T15:35:19.293Z,4.70
2018-07-23T15:37:47.516Z,5.70
2018-07-23T15:40:16.154Z,5.50
2018-07-23T15:42:44.328Z,5.40
2018-07-23T15:45:12.812Z,5.40
2018-07-23T15:47:40.929Z,5.33
2018-07-23T15:50:09.543Z,6.17
2018-07-23T15:52:38.184Z,7.50
2018-07-23T15:55:06.666Z,5.40
2018-07-23T15:57:34.947Z,5.03
2018-07-23T16:00:03.208Z,5.10
2018-07-23T16:02:31.472Z,7.43
2018-07-23T16:04:59.717Z,6.67
2018-07-23T16:07:27.897Z,5.50
2018-07-23T16:09:56.140Z,6.63
2018-07-23T16:12:24.392Z,5.40
2018-07-23T16:14:52.577Z,5.00
2018-07-23T16:17:20.867Z,5.53
2018-07-23T16:19:49.187Z,4.67
2018-07-23T16:22:17.388Z,4.63
2018-07-23T16:24:45.576Z,4.90
2018-07-23T16:27:13.750Z,4.80
2018-07-23T16:29:45.785Z,4.67
2018-07-23T16:32:14.195Z,4.70
2018-07-23T16:34:42.407Z,5.43
2018-07-23T16:37:10.688Z,5.60
2018-07-23T16:39:39.100Z,4.50
2018-07-23T16:42:07.343Z,5.00
2018-07-23T16:44:35.624Z,5.40
2018-07-23T16:47:03.995Z,6.00
2018-07-23T16:49:32.272Z,4.83
2018-07-23T16:52:00.619Z,4.60
2018-07-23T16:54:28.829Z,4.40
2018-07-23T16:56:56.987Z,5.50
2018-07-23T16:59:25.218Z,5.43
2018-07-23T17:01:53.471Z,4.50
2018-07-23T17:07:13.255Z,5.27
2018-07-23T17:09:44.094Z,4.97
2018-07-23T17:12:12.312Z,5.97
2018-07-23T17:14:40.480Z,4.83
2018-07-23T17:17:08.720Z,4.40
2018-07-23T17:19:36.917Z,4.80
2018-07-23T17:22:05.183Z,4.73
2018-07-23T17:24:33.415Z,4.43
2018-07-23T17:27:02.768Z,5.03
2018-07-23T17:29:31.043Z,4.50
2018-07-23T17:31:59.371Z,4.60
2018-07-23T17:34:27.584Z,5.10
2018-07-23T17:36:55.849Z,4.73
2018-07-23T17:39:24.127Z,4.60
2018-07-23T17:41:52.303Z,3.50
2018-07-23T17:44:20.522Z,4.43
2018-07-23T17:46:48.868Z,5.50
2018-07-23T17:49:17.078Z,4.57
2018-07-23T17:51:45.375Z,5.07
2018-07-23T17:54:13.720Z,4.07
2018-07-23T17:56:45.120Z,4.37
2018-07-23T17:59:13.440Z,4.20
2018-07-23T18:01:41.882Z,4.60
2018-07-23T18:04:10.136Z,4.03
2018-07-23T18:06:38.782Z,3.97
2018-07-23T18:09:09.265Z,4.40
2018-07-23T18:11:38.000Z,4.50
2018-07-23T18:14:06.330Z,4.40
2018-07-23T18:16:34.660Z,4.70
2018-07-23T18:19:03.073Z,5.13
2018-07-23T18:21:31.316Z,4.60
2018-07-23T18:23:59.937Z,4.20
2018-07-23T18:26:28.416Z,4.00
2018-07-23T18:28:56.860Z,5.50
2018-07-23T18:31:25.151Z,4.13
2018-07-23T18:33:53.432Z,4.10
2018-07-23T18:36:21.534Z,4.40
2018-07-23T18:38:50.233Z,3.57
2018-07-23T18:41:18.896Z,4.40
2018-07-23T18:43:48.425Z,5.27
2018-07-23T18:46:17.086Z,3.73
2018-07-23T18:49:24.600Z,4.03
2018-07-23T18:51:53.695Z,4.43
2018-07-23T18:54:22.915Z,4.57
2018-07-23T18:56:52.980Z,3.83
2018-07-23T18:59:21.350Z,3.77
2018-07-23T19:01:50.757Z,3.23
2018-07-23T19:04:19.203Z,11.13
2018-07-23T19:06:47.941Z,3.40
2018-07-23T19:09:17.650Z,3.50
2018-07-23T19:11:47.119Z,3.93
2018-07-23T19:14:15.907Z,3.33
2018-07-23T19:16:44.630Z,5.30
2018-07-23T19:19:13.377Z,3.70
2018-07-23T19:21:41.616Z,4.53
2018-07-23T19:24:10.194Z,3.70
2018-07-23T19:26:38.771Z,3.47
2018-07-23T19:29:07.112Z,4.33
2018-07-23T19:31:35.739Z,5.50
2018-07-23T19:34:04.778Z,3.50
2018-07-23T19:36:33.162Z,3.47
2018-07-23T19:39:01.568Z,4.00
2018-07-23T19:41:30.270Z,3.80
2018-07-23T19:43:58.664Z,3.07
2018-07-23T19:46:27.308Z,3.80
2018-07-23T19:48:55.641Z,3.40
2018-07-23T19:51:23.955Z,3.80
2018-07-23T19:53:52.148Z,3.20
2018-07-23T19:56:20.471Z,3.57
2018-07-23T19:58:48.860Z,3.57
2018-07-23T20:01:18.190Z,3.40
2018-07-23T20:03:46.508Z,4.37
2018-07-23T20:06:15.032Z,4.13
2018-07-23T20:08:43.488Z,4.00
2018-07-23T20:11:11.893Z,3.97
2018-07-23T20:13:40.212Z,4.07
2018-07-23T20:16:08.504Z,4.40
2018-07-23T20:18:36.840Z,4.43
2018-07-23T20:21:05.173Z,3.63
2018-07-23T20:23:33.476Z,4.10
2018-07-23T20:26:01.738Z,4.87
2018-07-23T20:28:30.070Z,4.47
2018-07-23T20:30:58.432Z,4.50
2018-07-23T20:33:26.619Z,5.67
2018-07-23T20:35:54.920Z,4.30
2018-07-23T20:38:23.220Z,4.37
2018-07-23T20:40:51.421Z,4.00
2018-07-23T20:43:19.699Z,4.40
2018-07-23T20:45:47.895Z,4.37
2018-07-23T20:48:16.107Z,4.27
2018-07-23T20:50:44.339Z,4.50
2018-07-23T20:53:12.670Z,4.40
2018-07-23T20:55:40.848Z,4.70
2018-07-23T20:58:09.055Z,4.17
2018-07-23T21:00:37.240Z,4.00
2018-07-23T21:03:06.140Z,4.97
2018-07-23T21:05:34.467Z,4.40
2018-07-23T21:08:02.703Z,4.93
2018-07-23T21:10:30.863Z,4.70
2018-07-23T21:12:59.058Z,4.90
2018-07-23T21:15:28.276Z,5.10
2018-07-23T21:17:56.743Z,4.30
2018-07-23T21:20:25.064Z,4.80
2018-07-23T21:22:53.247Z,4.73
2018-07-23T21:25:21.520Z,5.37
2018-07-23T21:27:49.777Z,4.10
2018-07-23T21:30:17.919Z,4.50
2018-07-23T21:32:46.163Z,4.30
2018-07-23T21:35:14.372Z,4.50
2018-07-23T21:37:42.859Z,4.77
2018-07-23T21:40:11.133Z,4.13
2018-07-23T21:42:39.884Z,4.30
2018-07-23T21:45:08.691Z,4.77
2018-07-23T21:47:37.408Z,4.93
2018-07-23T21:50:05.965Z,4.87
2018-07-23T21:52:36.578Z,4.87
2018-07-23T21:55:05.385Z,4.90
2018-07-23T21:57:33.576Z,4.70
2018-07-23T22:00:01.822Z,5.50
2018-07-23T22:02:30.232Z,5.37
2018-07-23T22:04:58.408Z,5.40
2018-07-23T22:07:26.582Z,5.00
2018-07-23T22:09:54.559Z,5.03
2018-07-23T22:12:22.732Z,5.60
2018-07-23T22:14:50.937Z,5.80
2018-07-23T22:17:19.132Z,5.90
2018-07-23T22:19:47.344Z,5.40
2018-07-23T22:22:15.579Z,5.43
2018-07-23T22:24:43.864Z,5.30
2018-07-23T22:27:12.063Z,5.33
2018-07-23T22:29:40.303Z,5.10
2018-07-23T22:32:08.503Z,5.13
2018-07-23T22:34:36.748Z,5.30
2018-07-23T22:37:04.975Z,5.50
2018-07-23T22:39:33.152Z,6.07
2018-07-23T22:42:01.396Z,5.73
2018-07-23T22:44:29.579Z,5.50
2018-07-23T22:46:57.833Z,5.43
2018-07-23T22:49:26.003Z,6.37
2018-07-23T22:51:54.175Z,5.60
2018-07-23T22:54:22.389Z,6.00
2018-07-23T22:56:50.583Z,6.93
2018-07-23T22:59:18.758Z,6.10
2018-07-23T23:01:46.892Z,6.60
2018-07-23T23:04:15.037Z,5.80
2018-07-23T23:06:43.240Z,6.30
2018-07-23T23:09:11.465Z,6.23
2018-07-23T23:11:39.712Z,6.83
2018-07-23T23:14:07.937Z,6.07
2018-07-23T23:16:36.178Z,6.67
2018-07-23T23:19:04.382Z,6.20
2018-07-23T23:21:32.558Z,6.63
2018-07-23T23:24:00.768Z,5.97
2018-07-23T23:26:28.944Z,6.47
2018-07-23T23:28:56.909Z,6.33
2018-07-23T23:31:25.095Z,6.80
2018-07-23T23:33:53.285Z,6.37
2018-07-23T23:36:21.530Z,6.13
2018-07-23T23:38:49.713Z,6.60
2018-07-23T23:41:17.896Z,5.97
2018-07-23T23:43:46.068Z,6.23
2018-07-23T23:46:14.032Z,5.67
2018-07-23T23:48:42.205Z,6.70
2018-07-23T23:51:10.430Z,6.50
2018-07-23T23:53:38.644Z,6.57
2018-07-23T23:56:06.849Z,6.43
2018-07-23T23:58:35.173Z,6.90
